sensor_id;sensor_type;location;lat;lon;timestamp;temperature;humidity
5055;DHT22;13829;48.990;8.346;2023-12-20T00:02:16;6.80;99.90
5055;DHT22;13829;48.990;8.346;2023-12-20T00:04:43;6.70;99.90
5055;DHT22;13829;48.990;8.346;2023-12-20T00:07:10;6.70;99.90
5055;DHT22;13829;48.990;8.346;2023-12-20T00:09:37;6.80;99.90
5055;DHT22;13829;48.990;8.346;2023-12-20T00:12:05;6.70;99.90
5055;DHT22;13829;48.990;8.346;2023-12-20T00:14:33;6.70;99.90
5055;DHT22;13829;48.990;8.346;2023-12-20T00:17:00;6.80;99.90
5055;DHT22;13829;48.990;8.346;2023-12-20T00:19:27;6.80;99.90
5055;DHT22;13829;48.990;8.346;2023-12-20T00:21:54;6.70;99.90
5055;DHT22;13829;48.990;8.346;2023-12-20T00:24:21;6.80;99.90
5055;DHT22;13829;48.990;8.346;2023-12-20T00:26:48;6.80;99.90
5055;DHT22;13829;48.990;8.346;2023-12-20T00:29:15;6.70;99.90
5055;DHT22;13829;48.990;8.346;2023-12-20T00:31:43;6.70;99.90
5055;DHT22;13829;48.990;8.346;2023-12-20T00:34:10;6.80;99.90
5055;DHT22;13829;48.990;8.346;2023-12-20T00:36:37;6.70;99.90
5055;DHT22;13829;48.990;8.346;2023-12-20T00:39:04;6.70;99.90
5055;DHT22;13829;48.990;8.346;2023-12-20T00:41:32;6.80;99.90
5055;DHT22;13829;48.990;8.346;2023-12-20T00:43:59;6.70;99.90
5055;DHT22;13829;48.990;8.346;2023-12-20T00:46:26;6.70;99.90
5055;DHT22;13829;48.990;8.346;2023-12-20T00:48:54;6.80;99.90
5055;DHT22;13829;48.990;8.346;2023-12-20T00:51:21;6.70;99.90
5055;DHT22;13829;48.990;8.346;2023-12-20T00:53:49;6.70;99.90
5055;DHT22;13829;48.990;8.346;2023-12-20T00:56:20;6.80;99.90
5055;DHT22;13829;48.990;8.346;2023-12-20T00:58:47;6.80;99.90
5055;DHT22;13829;48.990;8.346;2023-12-20T01:01:14;6.80;99.90
5055;DHT22;13829;48.990;8.346;2023-12-20T01:03:42;6.90;99.90
5055;DHT22;13829;48.990;8.346;2023-12-20T01:06:11;6.80;99.90
5055;DHT22;13829;48.990;8.346;2023-12-20T01:08:38;6.80;99.90
5055;DHT22;13829;48.990;8.346;2023-12-20T01:11:05;6.90;99.90
5055;DHT22;13829;48.990;8.346;2023-12-20T01:13:32;6.80;99.90
5055;DHT22;13829;48.990;8.346;2023-12-20T01:15:59;6.80;99.90
5055;DHT22;13829;48.990;8.346;2023-12-20T01:18:26;6.80;99.90
5055;DHT22;13829;48.990;8.346;2023-12-20T01:20:54;6.80;99.90
5055;DHT22;13829;48.990;8.346;2023-12-20T01:23:22;6.80;99.90
5055;DHT22;13829;48.990;8.346;2023-12-20T01:25:49;6.80;99.90
5055;DHT22;13829;48.990;8.346;2023-12-20T01:28:16;6.70;99.90
5055;DHT22;13829;48.990;8.346;2023-12-20T01:30:43;6.80;99.90
5055;DHT22;13829;48.990;8.346;2023-12-20T01:33:10;6.80;99.90
5055;DHT22;13829;48.990;8.346;2023-12-20T01:35:37;6.90;99.90
5055;DHT22;13829;48.990;8.346;2023-12-20T01:38:04;6.80;99.90
5055;DHT22;13829;48.990;8.346;2023-12-20T01:40:32;6.80;99.90
5055;DHT22;13829;48.990;8.346;2023-12-20T01:43:00;6.80;99.90
5055;DHT22;13829;48.990;8.346;2023-12-20T01:45:28;6.80;99.90
5055;DHT22;13829;48.990;8.346;2023-12-20T01:47:56;6.80;99.90
5055;DHT22;13829;48.990;8.346;2023-12-20T01:50:25;6.90;99.90
5055;DHT22;13829;48.990;8.346;2023-12-20T01:52:55;6.90;99.90
5055;DHT22;13829;48.990;8.346;2023-12-20T01:55:26;6.90;99.90
5055;DHT22;13829;48.990;8.346;2023-12-20T01:57:58;6.80;99.90
5055;DHT22;13829;48.990;8.346;2023-12-20T02:00:26;6.80;99.90
5055;DHT22;13829;48.990;8.346;2023-12-20T02:02:55;6.80;99.90
5055;DHT22;13829;48.990;8.346;2023-12-20T02:05:27;6.80;99.90
5055;DHT22;13829;48.990;8.346;2023-12-20T02:07:54;6.80;99.90
5055;DHT22;13829;48.990;8.346;2023-12-20T02:10:21;6.90;99.90
5055;DHT22;13829;48.990;8.346;2023-12-20T02:12:49;6.90;99.90
5055;DHT22;13829;48.990;8.346;2023-12-20T02:15:17;6.90;99.90
5055;DHT22;13829;48.990;8.346;2023-12-20T02:17:45;6.90;99.90
5055;DHT22;13829;48.990;8.346;2023-12-20T02:20:13;7.00;99.90
5055;DHT22;13829;48.990;8.346;2023-12-20T02:22:42;6.90;99.90
5055;DHT22;13829;48.990;8.346;2023-12-20T02:25:09;6.90;99.90
5055;DHT22;13829;48.990;8.346;2023-12-20T02:27:36;6.90;99.90
5055;DHT22;13829;48.990;8.346;2023-12-20T02:30:04;6.90;99.90
5055;DHT22;13829;48.990;8.346;2023-12-20T02:32:32;6.80;99.90
5055;DHT22;13829;48.990;8.346;2023-12-20T02:34:59;6.90;99.90
5055;DHT22;13829;48.990;8.346;2023-12-20T02:37:26;6.90;99.90
5055;DHT22;13829;48.990;8.346;2023-12-20T02:39:54;6.90;99.90
5055;DHT22;13829;48.990;8.346;2023-12-20T02:42:21;6.90;99.90
5055;DHT22;13829;48.990;8.346;2023-12-20T02:44:48;6.90;99.90
5055;DHT22;13829;48.990;8.346;2023-12-20T02:47:15;6.90;99.90
5055;DHT22;13829;48.990;8.346;2023-12-20T02:49:42;6.90;99.90
5055;DHT22;13829;48.990;8.346;2023-12-20T02:52:09;6.90;99.90
5055;DHT22;13829;48.990;8.346;2023-12-20T02:54:36;6.90;99.90
5055;DHT22;13829;48.990;8.346;2023-12-20T02:57:05;6.90;99.90
5055;DHT22;13829;48.990;8.346;2023-12-20T02:59:32;6.90;99.90
5055;DHT22;13829;48.990;8.346;2023-12-20T03:01:59;6.90;99.90
5055;DHT22;13829;48.990;8.346;2023-12-20T03:04:26;6.90;99.90
5055;DHT22;13829;48.990;8.346;2023-12-20T03:06:53;6.90;99.90
5055;DHT22;13829;48.990;8.346;2023-12-20T03:09:20;6.90;99.90
5055;DHT22;13829;48.990;8.346;2023-12-20T03:11:47;6.90;99.90
5055;DHT22;13829;48.990;8.346;2023-12-20T03:14:15;6.90;99.90
5055;DHT22;13829;48.990;8.346;2023-12-20T03:16:46;6.90;99.90
5055;DHT22;13829;48.990;8.346;2023-12-20T03:19:14;6.90;99.90
5055;DHT22;13829;48.990;8.346;2023-12-20T03:21:41;6.90;99.90
5055;DHT22;13829;48.990;8.346;2023-12-20T03:24:08;6.90;99.90
5055;DHT22;13829;48.990;8.346;2023-12-20T03:26:35;6.90;99.90
5055;DHT22;13829;48.990;8.346;2023-12-20T03:29:02;6.90;99.90
5055;DHT22;13829;48.990;8.346;2023-12-20T03:31:31;6.90;99.90
5055;DHT22;13829;48.990;8.346;2023-12-20T03:33:58;6.90;99.90
5055;DHT22;13829;48.990;8.346;2023-12-20T03:36:25;6.90;99.90
5055;DHT22;13829;48.990;8.346;2023-12-20T03:38:52;7.00;99.90
5055;DHT22;13829;48.990;8.346;2023-12-20T03:41:19;7.00;99.90
5055;DHT22;13829;48.990;8.346;2023-12-20T03:43:46;7.00;99.90
5055;DHT22;13829;48.990;8.346;2023-12-20T03:46:13;7.00;99.90
5055;DHT22;13829;48.990;8.346;2023-12-20T03:48:41;6.90;99.90
5055;DHT22;13829;48.990;8.346;2023-12-20T03:51:08;6.90;99.90
5055;DHT22;13829;48.990;8.346;2023-12-20T03:53:35;6.90;99.90
5055;DHT22;13829;48.990;8.346;2023-12-20T03:56:02;7.00;99.90
5055;DHT22;13829;48.990;8.346;2023-12-20T03:58:30;7.00;99.90
5055;DHT22;13829;48.990;8.346;2023-12-20T04:00:57;7.00;99.90
5055;DHT22;13829;48.990;8.346;2023-12-20T04:03:24;7.00;99.90
5055;DHT22;13829;48.990;8.346;2023-12-20T04:05:52;7.00;99.90
5055;DHT22;13829;48.990;8.346;2023-12-20T04:08:19;7.10;99.90
5055;DHT22;13829;48.990;8.346;2023-12-20T04:10:46;7.10;99.90
5055;DHT22;13829;48.990;8.346;2023-12-20T04:13:13;7.00;99.90
5055;DHT22;13829;48.990;8.346;2023-12-20T04:15:40;7.10;99.90
5055;DHT22;13829;48.990;8.346;2023-12-20T04:18:07;7.00;99.90
5055;DHT22;13829;48.990;8.346;2023-12-20T04:20:34;7.00;99.90
5055;DHT22;13829;48.990;8.346;2023-12-20T04:23:03;7.00;99.90
5055;DHT22;13829;48.990;8.346;2023-12-20T04:25:30;7.00;99.90
5055;DHT22;13829;48.990;8.346;2023-12-20T04:27:57;7.10;99.90
5055;DHT22;13829;48.990;8.346;2023-12-20T04:30:24;7.10;99.90
5055;DHT22;13829;48.990;8.346;2023-12-20T04:32:51;7.10;99.90
5055;DHT22;13829;48.990;8.346;2023-12-20T04:35:17;7.10;99.90
5055;DHT22;13829;48.990;8.346;2023-12-20T04:37:44;7.10;99.90
5055;DHT22;13829;48.990;8.346;2023-12-20T04:40:14;7.10;99.90
5055;DHT22;13829;48.990;8.346;2023-12-20T04:42:41;7.10;99.90
5055;DHT22;13829;48.990;8.346;2023-12-20T04:45:08;7.20;99.90
5055;DHT22;13829;48.990;8.346;2023-12-20T04:47:38;7.10;99.90
5055;DHT22;13829;48.990;8.346;2023-12-20T04:50:06;7.20;99.90
5055;DHT22;13829;48.990;8.346;2023-12-20T04:52:35;7.10;99.90
5055;DHT22;13829;48.990;8.346;2023-12-20T04:55:02;7.10;99.90
5055;DHT22;13829;48.990;8.346;2023-12-20T04:57:31;7.10;99.90
5055;DHT22;13829;48.990;8.346;2023-12-20T04:59:58;7.20;99.90
5055;DHT22;13829;48.990;8.346;2023-12-20T05:02:25;7.20;99.90
5055;DHT22;13829;48.990;8.346;2023-12-20T05:04:52;7.10;99.90
5055;DHT22;13829;48.990;8.346;2023-12-20T05:07:19;7.20;99.90
5055;DHT22;13829;48.990;8.346;2023-12-20T05:09:46;7.20;99.90
5055;DHT22;13829;48.990;8.346;2023-12-20T05:12:14;7.30;99.90
5055;DHT22;13829;48.990;8.346;2023-12-20T05:14:42;7.20;99.90
5055;DHT22;13829;48.990;8.346;2023-12-20T05:17:09;7.20;99.90
5055;DHT22;13829;48.990;8.346;2023-12-20T05:19:36;7.20;99.90
5055;DHT22;13829;48.990;8.346;2023-12-20T05:22:03;7.30;99.90
5055;DHT22;13829;48.990;8.346;2023-12-20T05:24:30;7.20;99.90
5055;DHT22;13829;48.990;8.346;2023-12-20T05:26:57;7.30;99.90
5055;DHT22;13829;48.990;8.346;2023-12-20T05:29:24;7.30;99.90
5055;DHT22;13829;48.990;8.346;2023-12-20T05:31:53;7.20;99.90
5055;DHT22;13829;48.990;8.346;2023-12-20T05:34:20;7.20;99.90
5055;DHT22;13829;48.990;8.346;2023-12-20T05:36:47;7.20;99.90
5055;DHT22;13829;48.990;8.346;2023-12-20T05:39:14;7.20;99.90
5055;DHT22;13829;48.990;8.346;2023-12-20T05:41:41;7.20;99.90
5055;DHT22;13829;48.990;8.346;2023-12-20T05:44:08;7.20;99.90
5055;DHT22;13829;48.990;8.346;2023-12-20T05:46:36;7.20;99.90
5055;DHT22;13829;48.990;8.346;2023-12-20T05:49:04;7.20;99.90
5055;DHT22;13829;48.990;8.346;2023-12-20T05:51:31;7.20;99.90
5055;DHT22;13829;48.990;8.346;2023-12-20T05:53:58;7.20;99.90
5055;DHT22;13829;48.990;8.346;2023-12-20T05:56:25;7.20;99.90
5055;DHT22;13829;48.990;8.346;2023-12-20T05:58:52;7.20;99.90
5055;DHT22;13829;48.990;8.346;2023-12-20T06:01:19;7.20;99.90
5055;DHT22;13829;48.990;8.346;2023-12-20T06:03:46;7.30;99.90
5055;DHT22;13829;48.990;8.346;2023-12-20T06:06:14;7.30;99.90
5055;DHT22;13829;48.990;8.346;2023-12-20T06:08:43;7.20;99.90
5055;DHT22;13829;48.990;8.346;2023-12-20T06:11:10;7.30;99.90
5055;DHT22;13829;48.990;8.346;2023-12-20T06:13:37;7.40;99.90
5055;DHT22;13829;48.990;8.346;2023-12-20T06:16:06;7.30;99.90
5055;DHT22;13829;48.990;8.346;2023-12-20T06:18:33;7.30;99.90
5055;DHT22;13829;48.990;8.346;2023-12-20T06:21:00;7.30;99.90
5055;DHT22;13829;48.990;8.346;2023-12-20T06:23:29;7.30;99.90
5055;DHT22;13829;48.990;8.346;2023-12-20T06:25:56;7.30;99.90
5055;DHT22;13829;48.990;8.346;2023-12-20T06:28:23;7.20;99.90
5055;DHT22;13829;48.990;8.346;2023-12-20T06:30:50;7.40;99.90
5055;DHT22;13829;48.990;8.346;2023-12-20T06:33:18;7.20;99.90
5055;DHT22;13829;48.990;8.346;2023-12-20T06:35:46;7.20;99.90
5055;DHT22;13829;48.990;8.346;2023-12-20T06:38:13;7.20;99.90
5055;DHT22;13829;48.990;8.346;2023-12-20T06:40:42;7.20;99.90
5055;DHT22;13829;48.990;8.346;2023-12-20T06:43:09;7.10;99.90
5055;DHT22;13829;48.990;8.346;2023-12-20T06:45:36;7.10;99.90
5055;DHT22;13829;48.990;8.346;2023-12-20T06:48:04;7.20;99.90
5055;DHT22;13829;48.990;8.346;2023-12-20T06:50:32;7.10;99.90
5055;DHT22;13829;48.990;8.346;2023-12-20T06:52:59;7.10;99.90
5055;DHT22;13829;48.990;8.346;2023-12-20T06:55:25;7.10;99.90
5055;DHT22;13829;48.990;8.346;2023-12-20T06:57:53;7.10;99.90
5055;DHT22;13829;48.990;8.346;2023-12-20T07:00:21;7.10;99.90
5055;DHT22;13829;48.990;8.346;2023-12-20T07:02:48;7.00;99.90
5055;DHT22;13829;48.990;8.346;2023-12-20T07:05:16;6.80;99.90
5055;DHT22;13829;48.990;8.346;2023-12-20T07:07:45;6.70;99.90
5055;DHT22;13829;48.990;8.346;2023-12-20T07:10:12;6.60;99.90
5055;DHT22;13829;48.990;8.346;2023-12-20T07:12:39;6.70;99.90
5055;DHT22;13829;48.990;8.346;2023-12-20T07:15:09;6.60;99.90
5055;DHT22;13829;48.990;8.346;2023-12-20T07:17:36;6.60;99.90
5055;DHT22;13829;48.990;8.346;2023-12-20T07:20:05;6.70;99.90
5055;DHT22;13829;48.990;8.346;2023-12-20T07:22:36;6.70;99.90
5055;DHT22;13829;48.990;8.346;2023-12-20T07:25:04;6.70;99.90
5055;DHT22;13829;48.990;8.346;2023-12-20T07:27:31;6.70;99.90
5055;DHT22;13829;48.990;8.346;2023-12-20T07:29:58;6.80;99.90
5055;DHT22;13829;48.990;8.346;2023-12-20T07:32:27;6.90;99.90
5055;DHT22;13829;48.990;8.346;2023-12-20T07:34:54;6.90;99.90
5055;DHT22;13829;48.990;8.346;2023-12-20T07:37:21;6.80;99.90
5055;DHT22;13829;48.990;8.346;2023-12-20T07:39:48;6.80;99.90
5055;DHT22;13829;48.990;8.346;2023-12-20T07:42:16;6.80;99.90
5055;DHT22;13829;48.990;8.346;2023-12-20T07:44:43;6.70;99.90
5055;DHT22;13829;48.990;8.346;2023-12-20T07:47:10;6.70;99.90
5055;DHT22;13829;48.990;8.346;2023-12-20T07:49:42;6.60;99.90
5055;DHT22;13829;48.990;8.346;2023-12-20T07:52:09;6.60;99.90
5055;DHT22;13829;48.990;8.346;2023-12-20T07:54:36;6.60;99.90
5055;DHT22;13829;48.990;8.346;2023-12-20T07:57:03;6.60;99.90
5055;DHT22;13829;48.990;8.346;2023-12-20T07:59:31;6.60;99.90
5055;DHT22;13829;48.990;8.346;2023-12-20T08:01:58;6.40;99.90
5055;DHT22;13829;48.990;8.346;2023-12-20T08:04:25;6.40;99.90
5055;DHT22;13829;48.990;8.346;2023-12-20T08:06:53;6.50;99.90
5055;DHT22;13829;48.990;8.346;2023-12-20T08:09:20;6.50;99.90
5055;DHT22;13829;48.990;8.346;2023-12-20T08:11:48;6.60;99.90
5055;DHT22;13829;48.990;8.346;2023-12-20T08:14:15;6.70;99.90
5055;DHT22;13829;48.990;8.346;2023-12-20T08:16:42;6.60;99.90
5055;DHT22;13829;48.990;8.346;2023-12-20T08:19:09;6.70;99.90
5055;DHT22;13829;48.990;8.346;2023-12-20T08:21:36;6.80;99.90
5055;DHT22;13829;48.990;8.346;2023-12-20T08:24:06;6.80;99.90
5055;DHT22;13829;48.990;8.346;2023-12-20T08:26:33;6.90;99.90
5055;DHT22;13829;48.990;8.346;2023-12-20T08:29:00;7.30;99.90
5055;DHT22;13829;48.990;8.346;2023-12-20T08:31:28;6.90;99.90
5055;DHT22;13829;48.990;8.346;2023-12-20T08:33:55;6.90;99.90
5055;DHT22;13829;48.990;8.346;2023-12-20T08:36:22;7.00;99.90
5055;DHT22;13829;48.990;8.346;2023-12-20T08:38:49;7.00;99.90
5055;DHT22;13829;48.990;8.346;2023-12-20T08:41:18;7.00;99.90
5055;DHT22;13829;48.990;8.346;2023-12-20T08:43:46;7.00;99.90
5055;DHT22;13829;48.990;8.346;2023-12-20T08:46:14;7.00;99.90
5055;DHT22;13829;48.990;8.346;2023-12-20T08:48:41;7.10;99.90
5055;DHT22;13829;48.990;8.346;2023-12-20T08:51:08;7.10;99.90
5055;DHT22;13829;48.990;8.346;2023-12-20T08:53:36;7.20;99.90
5055;DHT22;13829;48.990;8.346;2023-12-20T08:56:04;7.20;99.90
5055;DHT22;13829;48.990;8.346;2023-12-20T08:58:32;7.20;99.90
5055;DHT22;13829;48.990;8.346;2023-12-20T09:01:01;7.20;99.90
5055;DHT22;13829;48.990;8.346;2023-12-20T09:03:28;7.30;99.90
5055;DHT22;13829;48.990;8.346;2023-12-20T09:05:55;7.30;99.90
5055;DHT22;13829;48.990;8.346;2023-12-20T09:08:22;7.40;99.90
5055;DHT22;13829;48.990;8.346;2023-12-20T09:10:49;7.40;99.90
5055;DHT22;13829;48.990;8.346;2023-12-20T09:13:16;7.50;99.90
5055;DHT22;13829;48.990;8.346;2023-12-20T09:15:45;7.60;99.90
5055;DHT22;13829;48.990;8.346;2023-12-20T09:18:12;7.70;99.90
5055;DHT22;13829;48.990;8.346;2023-12-20T09:20:39;7.80;99.90
5055;DHT22;13829;48.990;8.346;2023-12-20T09:23:06;7.90;99.90
5055;DHT22;13829;48.990;8.346;2023-12-20T09:25:33;7.90;99.90
5055;DHT22;13829;48.990;8.346;2023-12-20T09:28:00;7.90;99.90
5055;DHT22;13829;48.990;8.346;2023-12-20T09:30:27;7.90;99.90
5055;DHT22;13829;48.990;8.346;2023-12-20T09:32:56;7.90;99.90
5055;DHT22;13829;48.990;8.346;2023-12-20T09:35:23;7.90;99.90
5055;DHT22;13829;48.990;8.346;2023-12-20T09:37:51;7.70;99.90
5055;DHT22;13829;48.990;8.346;2023-12-20T09:40:19;7.60;99.90
5055;DHT22;13829;48.990;8.346;2023-12-20T09:42:50;7.50;99.90
5055;DHT22;13829;48.990;8.346;2023-12-20T09:45:23;7.50;99.90
5055;DHT22;13829;48.990;8.346;2023-12-20T09:47:52;7.60;99.90
5055;DHT22;13829;48.990;8.346;2023-12-20T09:50:21;7.70;99.90
5055;DHT22;13829;48.990;8.346;2023-12-20T09:52:51;7.80;99.90
5055;DHT22;13829;48.990;8.346;2023-12-20T09:55:19;7.90;99.90
5055;DHT22;13829;48.990;8.346;2023-12-20T09:57:48;8.00;99.90
5055;DHT22;13829;48.990;8.346;2023-12-20T10:00:16;8.10;99.90
5055;DHT22;13829;48.990;8.346;2023-12-20T10:02:49;8.30;99.90
5055;DHT22;13829;48.990;8.346;2023-12-20T10:05:27;8.30;99.90
5055;DHT22;13829;48.990;8.346;2023-12-20T10:07:54;8.30;99.90
5055;DHT22;13829;48.990;8.346;2023-12-20T10:10:21;8.30;99.90
5055;DHT22;13829;48.990;8.346;2023-12-20T10:13:01;8.30;99.90
5055;DHT22;13829;48.990;8.346;2023-12-20T10:15:30;8.30;99.90
5055;DHT22;13829;48.990;8.346;2023-12-20T10:17:57;8.30;99.90
5055;DHT22;13829;48.990;8.346;2023-12-20T10:20:26;8.30;99.90
5055;DHT22;13829;48.990;8.346;2023-12-20T10:22:54;8.20;99.90
5055;DHT22;13829;48.990;8.346;2023-12-20T10:25:21;8.40;99.90
5055;DHT22;13829;48.990;8.346;2023-12-20T10:27:49;8.30;99.90
5055;DHT22;13829;48.990;8.346;2023-12-20T10:30:17;8.20;99.90
5055;DHT22;13829;48.990;8.346;2023-12-20T10:32:44;8.30;99.90
5055;DHT22;13829;48.990;8.346;2023-12-20T10:35:11;8.30;99.90
5055;DHT22;13829;48.990;8.346;2023-12-20T10:37:39;8.30;99.90
5055;DHT22;13829;48.990;8.346;2023-12-20T10:40:08;8.20;99.90
5055;DHT22;13829;48.990;8.346;2023-12-20T10:42:36;8.10;99.90
5055;DHT22;13829;48.990;8.346;2023-12-20T10:45:05;8.10;99.90
5055;DHT22;13829;48.990;8.346;2023-12-20T10:47:32;8.10;99.90
5055;DHT22;13829;48.990;8.346;2023-12-20T10:50:00;8.10;99.90
5055;DHT22;13829;48.990;8.346;2023-12-20T10:52:29;8.20;99.90
5055;DHT22;13829;48.990;8.346;2023-12-20T10:55:00;8.30;99.90
5055;DHT22;13829;48.990;8.346;2023-12-20T10:57:27;8.20;99.90
5055;DHT22;13829;48.990;8.346;2023-12-20T10:59:56;8.10;99.90
5055;DHT22;13829;48.990;8.346;2023-12-20T11:02:30;8.00;99.90
5055;DHT22;13829;48.990;8.346;2023-12-20T11:05:04;8.00;99.90
5055;DHT22;13829;48.990;8.346;2023-12-20T11:07:40;7.90;99.90
5055;DHT22;13829;48.990;8.346;2023-12-20T11:10:19;8.00;99.90
5055;DHT22;13829;48.990;8.346;2023-12-20T11:12:51;8.10;99.90
5055;DHT22;13829;48.990;8.346;2023-12-20T11:15:21;8.30;99.90
5055;DHT22;13829;48.990;8.346;2023-12-20T11:17:54;8.40;99.90
5055;DHT22;13829;48.990;8.346;2023-12-20T11:20:23;8.50;99.90
5055;DHT22;13829;48.990;8.346;2023-12-20T11:22:54;8.40;99.90
5055;DHT22;13829;48.990;8.346;2023-12-20T11:25:23;8.50;99.90
5055;DHT22;13829;48.990;8.346;2023-12-20T11:28:09;8.60;99.90
5055;DHT22;13829;48.990;8.346;2023-12-20T11:30:46;8.60;99.90
5055;DHT22;13829;48.990;8.346;2023-12-20T11:33:15;8.50;99.90
5055;DHT22;13829;48.990;8.346;2023-12-20T11:35:42;8.50;99.90
5055;DHT22;13829;48.990;8.346;2023-12-20T11:38:13;8.60;99.90
5055;DHT22;13829;48.990;8.346;2023-12-20T11:40:43;8.60;99.90
5055;DHT22;13829;48.990;8.346;2023-12-20T11:43:10;8.70;99.90
5055;DHT22;13829;48.990;8.346;2023-12-20T11:45:37;8.70;99.90
5055;DHT22;13829;48.990;8.346;2023-12-20T11:48:15;8.70;99.90
5055;DHT22;13829;48.990;8.346;2023-12-20T11:50:42;8.60;99.90
5055;DHT22;13829;48.990;8.346;2023-12-20T11:53:10;8.50;99.90
5055;DHT22;13829;48.990;8.346;2023-12-20T11:55:37;8.50;99.90
5055;DHT22;13829;48.990;8.346;2023-12-20T11:58:05;8.50;99.90
5055;DHT22;13829;48.990;8.346;2023-12-20T12:00:34;8.50;99.90
5055;DHT22;13829;48.990;8.346;2023-12-20T12:03:02;8.50;99.90
5055;DHT22;13829;48.990;8.346;2023-12-20T12:05:31;8.60;99.90
5055;DHT22;13829;48.990;8.346;2023-12-20T12:07:58;8.70;99.90
5055;DHT22;13829;48.990;8.346;2023-12-20T12:10:25;8.80;99.90
5055;DHT22;13829;48.990;8.346;2023-12-20T12:12:52;8.80;99.90
5055;DHT22;13829;48.990;8.346;2023-12-20T12:15:21;8.80;99.90
5055;DHT22;13829;48.990;8.346;2023-12-20T12:17:53;8.80;99.90
5055;DHT22;13829;48.990;8.346;2023-12-20T12:20:21;8.70;99.90
5055;DHT22;13829;48.990;8.346;2023-12-20T12:22:57;8.60;99.90
5055;DHT22;13829;48.990;8.346;2023-12-20T12:25:25;8.60;99.90
5055;DHT22;13829;48.990;8.346;2023-12-20T12:27:53;8.60;99.90
5055;DHT22;13829;48.990;8.346;2023-12-20T12:30:21;8.60;99.90
5055;DHT22;13829;48.990;8.346;2023-12-20T12:32:48;8.60;99.90
5055;DHT22;13829;48.990;8.346;2023-12-20T12:35:15;8.60;99.90
5055;DHT22;13829;48.990;8.346;2023-12-20T12:37:42;8.50;99.90
5055;DHT22;13829;48.990;8.346;2023-12-20T12:40:11;8.40;99.90
5055;DHT22;13829;48.990;8.346;2023-12-20T12:42:39;8.40;99.90
5055;DHT22;13829;48.990;8.346;2023-12-20T12:45:07;8.30;99.90
5055;DHT22;13829;48.990;8.346;2023-12-20T12:47:38;8.30;99.90
5055;DHT22;13829;48.990;8.346;2023-12-20T12:50:06;8.30;99.90
5055;DHT22;13829;48.990;8.346;2023-12-20T12:52:34;8.30;99.90
5055;DHT22;13829;48.990;8.346;2023-12-20T12:55:01;8.30;99.90
5055;DHT22;13829;48.990;8.346;2023-12-20T12:57:29;8.30;99.90
5055;DHT22;13829;48.990;8.346;2023-12-20T12:59:56;8.30;99.90
5055;DHT22;13829;48.990;8.346;2023-12-20T13:02:23;8.50;99.90
5055;DHT22;13829;48.990;8.346;2023-12-20T13:04:52;8.20;99.90
5055;DHT22;13829;48.990;8.346;2023-12-20T13:07:19;8.20;99.90
5055;DHT22;13829;48.990;8.346;2023-12-20T13:09:46;8.20;99.90
5055;DHT22;13829;48.990;8.346;2023-12-20T13:12:13;8.10;99.90
5055;DHT22;13829;48.990;8.346;2023-12-20T13:14:40;8.10;99.90
5055;DHT22;13829;48.990;8.346;2023-12-20T13:17:07;8.10;99.90
5055;DHT22;13829;48.990;8.346;2023-12-20T13:19:34;8.10;99.90
5055;DHT22;13829;48.990;8.346;2023-12-20T13:22:03;8.00;99.90
5055;DHT22;13829;48.990;8.346;2023-12-20T13:24:30;8.00;99.90
5055;DHT22;13829;48.990;8.346;2023-12-20T13:26:57;8.00;99.90
5055;DHT22;13829;48.990;8.346;2023-12-20T13:29:25;8.10;99.90
5055;DHT22;13829;48.990;8.346;2023-12-20T13:31:52;8.10;99.90
5055;DHT22;13829;48.990;8.346;2023-12-20T13:34:19;8.00;99.90
5055;DHT22;13829;48.990;8.346;2023-12-20T13:36:46;8.00;99.90
5055;DHT22;13829;48.990;8.346;2023-12-20T13:39:17;8.10;99.90
5055;DHT22;13829;48.990;8.346;2023-12-20T13:41:44;8.10;99.90
5055;DHT22;13829;48.990;8.346;2023-12-20T13:44:11;8.10;99.90
5055;DHT22;13829;48.990;8.346;2023-12-20T13:46:38;8.10;99.90
5055;DHT22;13829;48.990;8.346;2023-12-20T13:49:06;8.20;99.90
5055;DHT22;13829;48.990;8.346;2023-12-20T13:51:33;8.10;99.90
5055;DHT22;13829;48.990;8.346;2023-12-20T13:54:00;8.10;99.90
5055;DHT22;13829;48.990;8.346;2023-12-20T13:56:28;8.20;99.90
5055;DHT22;13829;48.990;8.346;2023-12-20T13:58:55;8.20;99.90
5055;DHT22;13829;48.990;8.346;2023-12-20T14:01:23;8.10;99.90
5055;DHT22;13829;48.990;8.346;2023-12-20T14:03:50;8.10;99.90
5055;DHT22;13829;48.990;8.346;2023-12-20T14:06:17;8.10;99.90
5055;DHT22;13829;48.990;8.346;2023-12-20T14:08:44;8.10;99.90
5055;DHT22;13829;48.990;8.346;2023-12-20T14:11:11;8.00;99.90
5055;DHT22;13829;48.990;8.346;2023-12-20T14:13:42;8.00;99.90
5055;DHT22;13829;48.990;8.346;2023-12-20T14:16:09;8.00;99.90
5055;DHT22;13829;48.990;8.346;2023-12-20T14:18:36;8.20;99.90
5055;DHT22;13829;48.990;8.346;2023-12-20T14:21:03;8.10;99.90
5055;DHT22;13829;48.990;8.346;2023-12-20T14:23:31;8.10;99.90
5055;DHT22;13829;48.990;8.346;2023-12-20T14:25:59;8.00;99.90
5055;DHT22;13829;48.990;8.346;2023-12-20T14:28:27;8.10;99.90
5055;DHT22;13829;48.990;8.346;2023-12-20T14:30:56;8.00;99.90
5055;DHT22;13829;48.990;8.346;2023-12-20T14:33:23;8.00;99.90
5055;DHT22;13829;48.990;8.346;2023-12-20T14:35:50;8.00;99.90
5055;DHT22;13829;48.990;8.346;2023-12-20T14:38:17;7.90;99.90
5055;DHT22;13829;48.990;8.346;2023-12-20T14:40:45;8.10;99.90
5055;DHT22;13829;48.990;8.346;2023-12-20T14:43:12;7.90;99.90
5055;DHT22;13829;48.990;8.346;2023-12-20T14:45:39;7.90;99.90
5055;DHT22;13829;48.990;8.346;2023-12-20T14:48:07;8.00;99.90
5055;DHT22;13829;48.990;8.346;2023-12-20T14:50:34;7.90;99.90
5055;DHT22;13829;48.990;8.346;2023-12-20T14:53:02;8.00;99.90
5055;DHT22;13829;48.990;8.346;2023-12-20T14:55:29;8.10;99.90
5055;DHT22;13829;48.990;8.346;2023-12-20T14:57:56;8.00;99.90
5055;DHT22;13829;48.990;8.346;2023-12-20T15:00:23;8.00;99.90
5055;DHT22;13829;48.990;8.346;2023-12-20T15:02:50;8.00;99.90
5055;DHT22;13829;48.990;8.346;2023-12-20T15:05:19;8.20;99.90
5055;DHT22;13829;48.990;8.346;2023-12-20T15:07:46;7.90;99.90
5055;DHT22;13829;48.990;8.346;2023-12-20T15:10:13;8.00;99.90
5055;DHT22;13829;48.990;8.346;2023-12-20T15:12:40;7.90;99.90
5055;DHT22;13829;48.990;8.346;2023-12-20T15:15:08;7.80;99.90
5055;DHT22;13829;48.990;8.346;2023-12-20T15:17:36;7.80;99.90
5055;DHT22;13829;48.990;8.346;2023-12-20T15:20:04;7.70;99.90
5055;DHT22;13829;48.990;8.346;2023-12-20T15:22:32;7.70;99.90
5055;DHT22;13829;48.990;8.346;2023-12-20T15:25:00;7.60;99.90
5055;DHT22;13829;48.990;8.346;2023-12-20T15:27:28;7.60;99.90
5055;DHT22;13829;48.990;8.346;2023-12-20T15:29:55;7.60;99.90
5055;DHT22;13829;48.990;8.346;2023-12-20T15:32:22;7.60;99.90
5055;DHT22;13829;48.990;8.346;2023-12-20T15:34:49;7.70;99.90
5055;DHT22;13829;48.990;8.346;2023-12-20T15:37:17;7.60;99.90
5055;DHT22;13829;48.990;8.346;2023-12-20T15:39:46;7.60;99.90
5055;DHT22;13829;48.990;8.346;2023-12-20T15:42:13;7.60;99.90
5055;DHT22;13829;48.990;8.346;2023-12-20T15:44:39;7.50;99.90
5055;DHT22;13829;48.990;8.346;2023-12-20T15:47:07;7.50;99.90
5055;DHT22;13829;48.990;8.346;2023-12-20T15:49:34;7.50;99.90
5055;DHT22;13829;48.990;8.346;2023-12-20T15:52:00;7.50;99.90
5055;DHT22;13829;48.990;8.346;2023-12-20T15:54:27;7.40;99.90
5055;DHT22;13829;48.990;8.346;2023-12-20T15:56:56;7.40;99.90
5055;DHT22;13829;48.990;8.346;2023-12-20T15:59:23;7.40;99.90
5055;DHT22;13829;48.990;8.346;2023-12-20T16:01:50;7.40;99.90
5055;DHT22;13829;48.990;8.346;2023-12-20T16:04:16;7.40;99.90
5055;DHT22;13829;48.990;8.346;2023-12-20T16:06:43;7.40;99.90